Terminal Aerodrome Forecast
Issued by NWS

Home | Current Version | Previous Version | Text Only | Print | Product List | Glossary Off
Versions: 1 2 3 4 5 6 7 8 9 10 11 12

000
FTUS43 KMPX 071100
TAFRWF
TAF
KRWF 071120Z 0712/0812 27005KT P6SM BKN150
     FM071245 27007KT P6SM VCSH SCT050 BKN080
     FM071700 29008KT P6SM SCT040 BKN080
      TEMPO 0720/0724 3SM -TSRA OVC025CB=

USA.gov is the U.S. government's official web portal to all federal, state and local government web resources and services.